sensor_id;sensor_type;location;lat;lon;timestamp;P1;durP1;ratioP1;P2;durP2;ratioP2
3274;SDS011;1649;53.672;10.064;2024-03-25T00:01:53;11.80;;;3.33;;
3274;SDS011;1649;53.672;10.064;2024-03-25T00:04:19;12.83;;;4.17;;
3274;SDS011;1649;53.672;10.064;2024-03-25T00:06:47;10.93;;;3.77;;
3274;SDS011;1649;53.672;10.064;2024-03-25T00:09:13;7.60;;;2.80;;
3274;SDS011;1649;53.672;10.064;2024-03-25T00:11:39;12.50;;;3.30;;
3274;SDS011;1649;53.672;10.064;2024-03-25T00:14:08;14.50;;;3.67;;
3274;SDS011;1649;53.672;10.064;2024-03-25T00:16:34;9.63;;;3.23;;
3274;SDS011;1649;53.672;10.064;2024-03-25T00:19:00;10.43;;;2.80;;
3274;SDS011;1649;53.672;10.064;2024-03-25T00:21:25;11.20;;;3.23;;
3274;SDS011;1649;53.672;10.064;2024-03-25T00:23:51;10.07;;;3.00;;
3274;SDS011;1649;53.672;10.064;2024-03-25T00:26:16;6.30;;;2.37;;
3274;SDS011;1649;53.672;10.064;2024-03-25T00:28:42;9.13;;;2.90;;
3274;SDS011;1649;53.672;10.064;2024-03-25T00:31:08;7.33;;;2.87;;
3274;SDS011;1649;53.672;10.064;2024-03-25T00:33:34;8.30;;;2.60;;
3274;SDS011;1649;53.672;10.064;2024-03-25T00:35:59;9.33;;;2.87;;
3274;SDS011;1649;53.672;10.064;2024-03-25T00:38:25;8.43;;;2.67;;
3274;SDS011;1649;53.672;10.064;2024-03-25T00:40:50;8.20;;;3.07;;
3274;SDS011;1649;53.672;10.064;2024-03-25T00:43:16;10.40;;;2.97;;
3274;SDS011;1649;53.672;10.064;2024-03-25T00:45:42;10.70;;;3.70;;
3274;SDS011;1649;53.672;10.064;2024-03-25T00:48:08;7.57;;;2.70;;
3274;SDS011;1649;53.672;10.064;2024-03-25T00:50:33;12.17;;;3.63;;
3274;SDS011;1649;53.672;10.064;2024-03-25T00:52:59;8.80;;;3.50;;
3274;SDS011;1649;53.672;10.064;2024-03-25T00:55:24;10.07;;;3.60;;
3274;SDS011;1649;53.672;10.064;2024-03-25T00:57:50;6.90;;;3.00;;
3274;SDS011;1649;53.672;10.064;2024-03-25T01:00:16;13.07;;;3.73;;
3274;SDS011;1649;53.672;10.064;2024-03-25T01:02:42;11.80;;;3.40;;
3274;SDS011;1649;53.672;10.064;2024-03-25T01:05:08;7.57;;;3.00;;
3274;SDS011;1649;53.672;10.064;2024-03-25T01:07:34;6.37;;;2.97;;
3274;SDS011;1649;53.672;10.064;2024-03-25T01:09:59;6.40;;;2.97;;
3274;SDS011;1649;53.672;10.064;2024-03-25T01:12:25;12.23;;;3.87;;
3274;SDS011;1649;53.672;10.064;2024-03-25T01:14:51;10.57;;;4.30;;
3274;SDS011;1649;53.672;10.064;2024-03-25T01:17:17;11.03;;;4.27;;
3274;SDS011;1649;53.672;10.064;2024-03-25T01:19:42;10.77;;;3.27;;
3274;SDS011;1649;53.672;10.064;2024-03-25T01:22:08;11.47;;;3.70;;
3274;SDS011;1649;53.672;10.064;2024-03-25T01:24:34;14.83;;;3.97;;
3274;SDS011;1649;53.672;10.064;2024-03-25T01:26:59;10.00;;;3.93;;
3274;SDS011;1649;53.672;10.064;2024-03-25T01:29:25;8.20;;;3.27;;
3274;SDS011;1649;53.672;10.064;2024-03-25T01:31:51;10.63;;;3.77;;
3274;SDS011;1649;53.672;10.064;2024-03-25T01:34:16;14.13;;;4.30;;
3274;SDS011;1649;53.672;10.064;2024-03-25T01:36:42;13.17;;;4.80;;
3274;SDS011;1649;53.672;10.064;2024-03-25T01:39:08;11.17;;;3.80;;
3274;SDS011;1649;53.672;10.064;2024-03-25T01:41:34;9.50;;;3.93;;
3274;SDS011;1649;53.672;10.064;2024-03-25T01:44:00;14.43;;;4.87;;
3274;SDS011;1649;53.672;10.064;2024-03-25T01:46:26;10.73;;;4.07;;
3274;SDS011;1649;53.672;10.064;2024-03-25T01:48:52;12.80;;;4.60;;
3274;SDS011;1649;53.672;10.064;2024-03-25T01:51:19;11.33;;;4.00;;
3274;SDS011;1649;53.672;10.064;2024-03-25T01:53:46;12.57;;;4.67;;
3274;SDS011;1649;53.672;10.064;2024-03-25T01:56:14;10.87;;;5.10;;
3274;SDS011;1649;53.672;10.064;2024-03-25T01:58:41;7.63;;;4.00;;
3274;SDS011;1649;53.672;10.064;2024-03-25T02:01:07;9.00;;;3.97;;
3274;SDS011;1649;53.672;10.064;2024-03-25T02:03:35;8.40;;;4.30;;
3274;SDS011;1649;53.672;10.064;2024-03-25T02:06:02;9.47;;;3.70;;
3274;SDS011;1649;53.672;10.064;2024-03-25T02:08:33;9.37;;;3.83;;
3274;SDS011;1649;53.672;10.064;2024-03-25T02:10:59;10.40;;;4.00;;
3274;SDS011;1649;53.672;10.064;2024-03-25T02:13:25;10.03;;;4.37;;
3274;SDS011;1649;53.672;10.064;2024-03-25T02:15:51;11.07;;;3.83;;
3274;SDS011;1649;53.672;10.064;2024-03-25T02:18:17;8.97;;;4.10;;
3274;SDS011;1649;53.672;10.064;2024-03-25T02:20:43;10.87;;;3.90;;
3274;SDS011;1649;53.672;10.064;2024-03-25T02:23:09;11.07;;;3.70;;
3274;SDS011;1649;53.672;10.064;2024-03-25T02:25:35;7.57;;;2.93;;
3274;SDS011;1649;53.672;10.064;2024-03-25T02:28:03;10.00;;;3.43;;
3274;SDS011;1649;53.672;10.064;2024-03-25T02:30:29;9.20;;;3.43;;
3274;SDS011;1649;53.672;10.064;2024-03-25T02:32:55;7.87;;;3.57;;
3274;SDS011;1649;53.672;10.064;2024-03-25T02:35:20;10.33;;;2.97;;
3274;SDS011;1649;53.672;10.064;2024-03-25T02:37:47;11.90;;;4.20;;
3274;SDS011;1649;53.672;10.064;2024-03-25T02:40:12;11.03;;;3.83;;
3274;SDS011;1649;53.672;10.064;2024-03-25T02:42:38;9.90;;;4.00;;
3274;SDS011;1649;53.672;10.064;2024-03-25T02:45:05;11.27;;;3.60;;
3274;SDS011;1649;53.672;10.064;2024-03-25T02:47:31;10.20;;;3.53;;
3274;SDS011;1649;53.672;10.064;2024-03-25T02:49:56;12.30;;;3.40;;
3274;SDS011;1649;53.672;10.064;2024-03-25T02:52:22;12.43;;;3.77;;
3274;SDS011;1649;53.672;10.064;2024-03-25T02:54:47;9.10;;;3.60;;
3274;SDS011;1649;53.672;10.064;2024-03-25T02:57:13;10.07;;;3.60;;
3274;SDS011;1649;53.672;10.064;2024-03-25T02:59:38;9.17;;;3.10;;
3274;SDS011;1649;53.672;10.064;2024-03-25T03:02:04;8.80;;;3.53;;
3274;SDS011;1649;53.672;10.064;2024-03-25T03:04:29;7.63;;;3.60;;
3274;SDS011;1649;53.672;10.064;2024-03-25T03:06:55;9.03;;;2.60;;
3274;SDS011;1649;53.672;10.064;2024-03-25T03:09:21;6.73;;;3.27;;
3274;SDS011;1649;53.672;10.064;2024-03-25T03:11:47;7.00;;;2.97;;
3274;SDS011;1649;53.672;10.064;2024-03-25T03:14:12;6.87;;;2.87;;
3274;SDS011;1649;53.672;10.064;2024-03-25T03:16:38;9.17;;;3.17;;
3274;SDS011;1649;53.672;10.064;2024-03-25T03:19:03;8.13;;;2.80;;
3274;SDS011;1649;53.672;10.064;2024-03-25T03:21:29;8.80;;;3.10;;
3274;SDS011;1649;53.672;10.064;2024-03-25T03:23:55;8.83;;;2.97;;
3274;SDS011;1649;53.672;10.064;2024-03-25T03:26:21;10.70;;;3.77;;
3274;SDS011;1649;53.672;10.064;2024-03-25T03:28:51;12.07;;;3.23;;
3274;SDS011;1649;53.672;10.064;2024-03-25T03:31:17;9.40;;;3.17;;
3274;SDS011;1649;53.672;10.064;2024-03-25T03:33:43;12.60;;;3.77;;
3274;SDS011;1649;53.672;10.064;2024-03-25T03:36:08;10.40;;;3.00;;
3274;SDS011;1649;53.672;10.064;2024-03-25T03:38:34;6.77;;;2.93;;
3274;SDS011;1649;53.672;10.064;2024-03-25T03:41:01;12.17;;;3.53;;
3274;SDS011;1649;53.672;10.064;2024-03-25T03:43:27;7.13;;;2.83;;
3274;SDS011;1649;53.672;10.064;2024-03-25T03:45:52;9.80;;;3.20;;
3274;SDS011;1649;53.672;10.064;2024-03-25T03:48:18;7.70;;;3.17;;
3274;SDS011;1649;53.672;10.064;2024-03-25T03:50:44;7.30;;;2.93;;
3274;SDS011;1649;53.672;10.064;2024-03-25T03:53:09;10.43;;;3.13;;
3274;SDS011;1649;53.672;10.064;2024-03-25T03:55:35;9.00;;;2.63;;
3274;SDS011;1649;53.672;10.064;2024-03-25T03:58:01;9.70;;;3.40;;
3274;SDS011;1649;53.672;10.064;2024-03-25T04:00:26;8.63;;;2.70;;
3274;SDS011;1649;53.672;10.064;2024-03-25T04:02:52;6.40;;;2.80;;
3274;SDS011;1649;53.672;10.064;2024-03-25T04:05:18;9.73;;;2.77;;
3274;SDS011;1649;53.672;10.064;2024-03-25T04:07:44;9.90;;;2.93;;
3274;SDS011;1649;53.672;10.064;2024-03-25T04:10:09;12.50;;;3.23;;
3274;SDS011;1649;53.672;10.064;2024-03-25T04:12:35;9.53;;;2.40;;
3274;SDS011;1649;53.672;10.064;2024-03-25T04:15:02;7.73;;;2.87;;
3274;SDS011;1649;53.672;10.064;2024-03-25T04:17:31;7.50;;;2.37;;
3274;SDS011;1649;53.672;10.064;2024-03-25T04:19:58;5.80;;;2.40;;
3274;SDS011;1649;53.672;10.064;2024-03-25T04:22:25;6.40;;;2.47;;
3274;SDS011;1649;53.672;10.064;2024-03-25T04:24:51;12.30;;;3.07;;
3274;SDS011;1649;53.672;10.064;2024-03-25T04:27:16;7.83;;;2.43;;
3274;SDS011;1649;53.672;10.064;2024-03-25T04:29:45;6.30;;;2.70;;
3274;SDS011;1649;53.672;10.064;2024-03-25T04:32:11;8.10;;;2.33;;
3274;SDS011;1649;53.672;10.064;2024-03-25T04:34:37;6.30;;;2.60;;
3274;SDS011;1649;53.672;10.064;2024-03-25T04:37:02;7.23;;;2.47;;
3274;SDS011;1649;53.672;10.064;2024-03-25T04:39:29;12.27;;;2.70;;
3274;SDS011;1649;53.672;10.064;2024-03-25T04:41:55;9.03;;;2.70;;
3274;SDS011;1649;53.672;10.064;2024-03-25T04:44:21;10.57;;;2.70;;
3274;SDS011;1649;53.672;10.064;2024-03-25T04:46:47;7.83;;;3.07;;
3274;SDS011;1649;53.672;10.064;2024-03-25T04:49:12;8.77;;;2.70;;
3274;SDS011;1649;53.672;10.064;2024-03-25T04:51:38;5.40;;;2.10;;
3274;SDS011;1649;53.672;10.064;2024-03-25T04:54:03;4.63;;;2.03;;
3274;SDS011;1649;53.672;10.064;2024-03-25T04:56:29;13.63;;;3.20;;
3274;SDS011;1649;53.672;10.064;2024-03-25T04:58:56;4.27;;;2.23;;
3274;SDS011;1649;53.672;10.064;2024-03-25T05:01:26;6.93;;;2.40;;
3274;SDS011;1649;53.672;10.064;2024-03-25T05:03:52;4.83;;;2.30;;
3274;SDS011;1649;53.672;10.064;2024-03-25T05:06:17;6.83;;;2.10;;
3274;SDS011;1649;53.672;10.064;2024-03-25T05:08:42;8.10;;;2.10;;
3274;SDS011;1649;53.672;10.064;2024-03-25T05:11:08;5.60;;;2.03;;
3274;SDS011;1649;53.672;10.064;2024-03-25T05:13:33;5.10;;;1.77;;
3274;SDS011;1649;53.672;10.064;2024-03-25T05:15:59;4.37;;;1.60;;
3274;SDS011;1649;53.672;10.064;2024-03-25T05:18:24;4.57;;;1.93;;
3274;SDS011;1649;53.672;10.064;2024-03-25T05:20:50;5.77;;;1.80;;
3274;SDS011;1649;53.672;10.064;2024-03-25T05:23:15;4.87;;;2.37;;
3274;SDS011;1649;53.672;10.064;2024-03-25T05:25:41;6.03;;;1.90;;
3274;SDS011;1649;53.672;10.064;2024-03-25T05:28:06;5.23;;;2.00;;
3274;SDS011;1649;53.672;10.064;2024-03-25T05:30:32;5.53;;;1.90;;
3274;SDS011;1649;53.672;10.064;2024-03-25T05:32:58;4.70;;;1.93;;
3274;SDS011;1649;53.672;10.064;2024-03-25T05:35:23;6.07;;;2.17;;
3274;SDS011;1649;53.672;10.064;2024-03-25T05:37:49;5.10;;;2.40;;
3274;SDS011;1649;53.672;10.064;2024-03-25T05:40:14;10.93;;;2.50;;
3274;SDS011;1649;53.672;10.064;2024-03-25T05:42:40;4.40;;;2.13;;
3274;SDS011;1649;53.672;10.064;2024-03-25T05:45:06;6.23;;;2.37;;
3274;SDS011;1649;53.672;10.064;2024-03-25T05:47:32;4.67;;;1.83;;
3274;SDS011;1649;53.672;10.064;2024-03-25T05:49:57;6.07;;;2.17;;
3274;SDS011;1649;53.672;10.064;2024-03-25T05:52:22;6.20;;;2.27;;
3274;SDS011;1649;53.672;10.064;2024-03-25T05:54:48;5.30;;;1.80;;
3274;SDS011;1649;53.672;10.064;2024-03-25T05:57:14;7.53;;;2.43;;
3274;SDS011;1649;53.672;10.064;2024-03-25T05:59:39;4.90;;;2.30;;
3274;SDS011;1649;53.672;10.064;2024-03-25T06:02:04;5.50;;;2.13;;
3274;SDS011;1649;53.672;10.064;2024-03-25T06:04:30;4.50;;;2.00;;
3274;SDS011;1649;53.672;10.064;2024-03-25T06:06:55;7.23;;;2.43;;
3274;SDS011;1649;53.672;10.064;2024-03-25T06:09:21;7.53;;;2.00;;
3274;SDS011;1649;53.672;10.064;2024-03-25T06:11:47;5.67;;;2.73;;
3274;SDS011;1649;53.672;10.064;2024-03-25T06:14:12;5.77;;;2.20;;
3274;SDS011;1649;53.672;10.064;2024-03-25T06:16:37;6.27;;;2.40;;
3274;SDS011;1649;53.672;10.064;2024-03-25T06:19:03;6.00;;;2.50;;
3274;SDS011;1649;53.672;10.064;2024-03-25T06:21:28;6.63;;;2.00;;
3274;SDS011;1649;53.672;10.064;2024-03-25T06:23:54;5.30;;;2.20;;
3274;SDS011;1649;53.672;10.064;2024-03-25T06:26:19;4.77;;;2.03;;
3274;SDS011;1649;53.672;10.064;2024-03-25T06:28:45;5.97;;;2.80;;
3274;SDS011;1649;53.672;10.064;2024-03-25T06:31:10;5.03;;;2.33;;
3274;SDS011;1649;53.672;10.064;2024-03-25T06:33:55;8.07;;;2.77;;
3274;SDS011;1649;53.672;10.064;2024-03-25T06:36:39;7.00;;;2.73;;
3274;SDS011;1649;53.672;10.064;2024-03-25T06:39:04;5.83;;;2.53;;
3274;SDS011;1649;53.672;10.064;2024-03-25T06:41:31;6.10;;;2.73;;
3274;SDS011;1649;53.672;10.064;2024-03-25T06:43:56;8.40;;;3.23;;
3274;SDS011;1649;53.672;10.064;2024-03-25T06:46:21;8.93;;;3.17;;
3274;SDS011;1649;53.672;10.064;2024-03-25T06:48:47;7.27;;;2.67;;
3274;SDS011;1649;53.672;10.064;2024-03-25T06:51:12;5.10;;;2.77;;
3274;SDS011;1649;53.672;10.064;2024-03-25T06:53:38;5.40;;;2.40;;
3274;SDS011;1649;53.672;10.064;2024-03-25T06:56:03;7.40;;;3.30;;
3274;SDS011;1649;53.672;10.064;2024-03-25T06:58:29;6.70;;;3.10;;
3274;SDS011;1649;53.672;10.064;2024-03-25T07:00:55;7.27;;;3.00;;
3274;SDS011;1649;53.672;10.064;2024-03-25T07:03:28;6.20;;;2.80;;
3274;SDS011;1649;53.672;10.064;2024-03-25T07:05:53;7.30;;;2.40;;
3274;SDS011;1649;53.672;10.064;2024-03-25T07:08:20;7.83;;;2.70;;
3274;SDS011;1649;53.672;10.064;2024-03-25T07:10:46;4.90;;;2.57;;
3274;SDS011;1649;53.672;10.064;2024-03-25T07:13:11;6.63;;;2.80;;
3274;SDS011;1649;53.672;10.064;2024-03-25T07:15:37;6.20;;;2.90;;
3274;SDS011;1649;53.672;10.064;2024-03-25T07:18:03;8.33;;;2.63;;
3274;SDS011;1649;53.672;10.064;2024-03-25T07:20:29;7.70;;;2.60;;
3274;SDS011;1649;53.672;10.064;2024-03-25T07:22:55;9.27;;;3.00;;
3274;SDS011;1649;53.672;10.064;2024-03-25T07:25:22;6.03;;;2.70;;
3274;SDS011;1649;53.672;10.064;2024-03-25T07:27:50;7.57;;;3.30;;
3274;SDS011;1649;53.672;10.064;2024-03-25T07:30:17;6.33;;;3.10;;
3274;SDS011;1649;53.672;10.064;2024-03-25T07:32:43;7.23;;;3.10;;
3274;SDS011;1649;53.672;10.064;2024-03-25T07:35:11;6.87;;;3.40;;
3274;SDS011;1649;53.672;10.064;2024-03-25T07:37:37;9.63;;;3.07;;
3274;SDS011;1649;53.672;10.064;2024-03-25T07:40:03;7.43;;;3.07;;
3274;SDS011;1649;53.672;10.064;2024-03-25T07:42:29;9.10;;;3.27;;
3274;SDS011;1649;53.672;10.064;2024-03-25T07:44:55;6.23;;;3.20;;
3274;SDS011;1649;53.672;10.064;2024-03-25T07:47:21;7.67;;;3.70;;
3274;SDS011;1649;53.672;10.064;2024-03-25T07:49:46;6.10;;;3.27;;
3274;SDS011;1649;53.672;10.064;2024-03-25T07:52:12;7.27;;;3.30;;
3274;SDS011;1649;53.672;10.064;2024-03-25T07:54:38;6.90;;;3.13;;
3274;SDS011;1649;53.672;10.064;2024-03-25T07:57:04;6.77;;;3.30;;
3274;SDS011;1649;53.672;10.064;2024-03-25T07:59:30;6.40;;;3.10;;
3274;SDS011;1649;53.672;10.064;2024-03-25T08:01:55;6.23;;;2.63;;
3274;SDS011;1649;53.672;10.064;2024-03-25T08:04:21;5.53;;;2.13;;
3274;SDS011;1649;53.672;10.064;2024-03-25T08:06:46;7.30;;;2.90;;
3274;SDS011;1649;53.672;10.064;2024-03-25T08:09:12;7.13;;;2.00;;
3274;SDS011;1649;53.672;10.064;2024-03-25T08:11:40;6.87;;;2.23;;
3274;SDS011;1649;53.672;10.064;2024-03-25T08:14:06;8.33;;;2.30;;
3274;SDS011;1649;53.672;10.064;2024-03-25T08:16:31;6.97;;;2.20;;
3274;SDS011;1649;53.672;10.064;2024-03-25T08:18:57;7.37;;;2.70;;
3274;SDS011;1649;53.672;10.064;2024-03-25T08:21:22;5.53;;;2.33;;
3274;SDS011;1649;53.672;10.064;2024-03-25T08:23:48;9.10;;;2.60;;
3274;SDS011;1649;53.672;10.064;2024-03-25T08:26:13;9.13;;;2.50;;
3274;SDS011;1649;53.672;10.064;2024-03-25T08:28:39;8.77;;;2.37;;
3274;SDS011;1649;53.672;10.064;2024-03-25T08:31:04;9.73;;;2.40;;
3274;SDS011;1649;53.672;10.064;2024-03-25T08:33:30;6.23;;;2.50;;
3274;SDS011;1649;53.672;10.064;2024-03-25T08:35:56;6.93;;;2.83;;
3274;SDS011;1649;53.672;10.064;2024-03-25T08:38:22;7.80;;;2.87;;
3274;SDS011;1649;53.672;10.064;2024-03-25T08:40:47;8.63;;;2.67;;
3274;SDS011;1649;53.672;10.064;2024-03-25T08:43:13;5.37;;;2.83;;
3274;SDS011;1649;53.672;10.064;2024-03-25T08:45:38;8.80;;;2.80;;
3274;SDS011;1649;53.672;10.064;2024-03-25T08:48:05;9.47;;;2.90;;
3274;SDS011;1649;53.672;10.064;2024-03-25T08:50:31;9.93;;;2.60;;
3274;SDS011;1649;53.672;10.064;2024-03-25T08:52:57;12.63;;;2.80;;
3274;SDS011;1649;53.672;10.064;2024-03-25T08:55:22;7.27;;;2.50;;
3274;SDS011;1649;53.672;10.064;2024-03-25T08:57:48;7.13;;;2.20;;
3274;SDS011;1649;53.672;10.064;2024-03-25T09:00:14;6.50;;;2.50;;
3274;SDS011;1649;53.672;10.064;2024-03-25T09:02:40;10.23;;;2.70;;
3274;SDS011;1649;53.672;10.064;2024-03-25T09:05:05;7.50;;;2.70;;
3274;SDS011;1649;53.672;10.064;2024-03-25T09:07:32;8.83;;;2.40;;
3274;SDS011;1649;53.672;10.064;2024-03-25T09:09:57;9.60;;;3.00;;
3274;SDS011;1649;53.672;10.064;2024-03-25T09:12:42;8.40;;;2.10;;
3274;SDS011;1649;53.672;10.064;2024-03-25T09:15:07;8.27;;;2.17;;
3274;SDS011;1649;53.672;10.064;2024-03-25T09:17:34;9.47;;;2.27;;
3274;SDS011;1649;53.672;10.064;2024-03-25T09:20:00;8.83;;;2.10;;
3274;SDS011;1649;53.672;10.064;2024-03-25T09:22:27;8.10;;;2.17;;
3274;SDS011;1649;53.672;10.064;2024-03-25T09:24:52;8.20;;;1.60;;
3274;SDS011;1649;53.672;10.064;2024-03-25T09:27:18;7.93;;;2.10;;
3274;SDS011;1649;53.672;10.064;2024-03-25T09:29:45;7.13;;;1.83;;
3274;SDS011;1649;53.672;10.064;2024-03-25T09:32:10;7.43;;;2.40;;
3274;SDS011;1649;53.672;10.064;2024-03-25T09:34:35;9.13;;;2.13;;
3274;SDS011;1649;53.672;10.064;2024-03-25T09:37:01;7.10;;;1.97;;
3274;SDS011;1649;53.672;10.064;2024-03-25T09:39:26;8.60;;;2.30;;
3274;SDS011;1649;53.672;10.064;2024-03-25T09:41:54;7.00;;;2.30;;
3274;SDS011;1649;53.672;10.064;2024-03-25T09:44:22;10.30;;;2.60;;
3274;SDS011;1649;53.672;10.064;2024-03-25T09:46:50;7.63;;;2.13;;
3274;SDS011;1649;53.672;10.064;2024-03-25T09:49:16;9.87;;;2.40;;
3274;SDS011;1649;53.672;10.064;2024-03-25T09:51:42;8.20;;;2.17;;
3274;SDS011;1649;53.672;10.064;2024-03-25T09:54:08;8.77;;;1.93;;
3274;SDS011;1649;53.672;10.064;2024-03-25T09:56:33;5.73;;;1.53;;
3274;SDS011;1649;53.672;10.064;2024-03-25T09:59:00;7.07;;;2.07;;
3274;SDS011;1649;53.672;10.064;2024-03-25T10:01:26;8.00;;;2.07;;
3274;SDS011;1649;53.672;10.064;2024-03-25T10:03:51;6.37;;;2.10;;
3274;SDS011;1649;53.672;10.064;2024-03-25T10:06:17;10.23;;;2.83;;
3274;SDS011;1649;53.672;10.064;2024-03-25T10:08:42;8.93;;;2.50;;
3274;SDS011;1649;53.672;10.064;2024-03-25T10:11:10;10.30;;;2.50;;
3274;SDS011;1649;53.672;10.064;2024-03-25T10:13:35;5.63;;;2.10;;
3274;SDS011;1649;53.672;10.064;2024-03-25T10:16:02;6.47;;;2.00;;
3274;SDS011;1649;53.672;10.064;2024-03-25T10:18:28;6.63;;;1.57;;
3274;SDS011;1649;53.672;10.064;2024-03-25T10:20:54;8.67;;;1.80;;
3274;SDS011;1649;53.672;10.064;2024-03-25T10:23:24;7.37;;;1.63;;
3274;SDS011;1649;53.672;10.064;2024-03-25T10:25:51;5.83;;;1.50;;
3274;SDS011;1649;53.672;10.064;2024-03-25T10:28:17;6.47;;;1.60;;
3274;SDS011;1649;53.672;10.064;2024-03-25T10:30:43;6.10;;;1.70;;
3274;SDS011;1649;53.672;10.064;2024-03-25T10:33:08;8.93;;;1.80;;
3274;SDS011;1649;53.672;10.064;2024-03-25T10:35:35;5.40;;;1.57;;
3274;SDS011;1649;53.672;10.064;2024-03-25T10:38:05;6.10;;;1.33;;
3274;SDS011;1649;53.672;10.064;2024-03-25T10:40:36;5.37;;;1.50;;
3274;SDS011;1649;53.672;10.064;2024-03-25T10:43:09;6.83;;;1.93;;
3274;SDS011;1649;53.672;10.064;2024-03-25T10:45:46;7.77;;;2.00;;
3274;SDS011;1649;53.672;10.064;2024-03-25T10:48:30;7.30;;;1.90;;
3274;SDS011;1649;53.672;10.064;2024-03-25T10:50:58;6.90;;;2.20;;
3274;SDS011;1649;53.672;10.064;2024-03-25T10:53:26;7.10;;;2.17;;
3274;SDS011;1649;53.672;10.064;2024-03-25T10:55:53;6.57;;;1.67;;
3274;SDS011;1649;53.672;10.064;2024-03-25T10:58:21;6.90;;;1.80;;
3274;SDS011;1649;53.672;10.064;2024-03-25T11:00:48;4.43;;;1.60;;
3274;SDS011;1649;53.672;10.064;2024-03-25T11:03:14;5.97;;;1.70;;
3274;SDS011;1649;53.672;10.064;2024-03-25T11:05:40;6.03;;;1.73;;
3274;SDS011;1649;53.672;10.064;2024-03-25T11:08:09;5.30;;;1.70;;
3274;SDS011;1649;53.672;10.064;2024-03-25T11:10:42;5.87;;;1.60;;
3274;SDS011;1649;53.672;10.064;2024-03-25T11:13:12;4.93;;;1.50;;
3274;SDS011;1649;53.672;10.064;2024-03-25T11:15:45;5.27;;;1.90;;
3274;SDS011;1649;53.672;10.064;2024-03-25T11:18:11;6.93;;;2.00;;
3274;SDS011;1649;53.672;10.064;2024-03-25T11:20:37;12.90;;;1.83;;
3274;SDS011;1649;53.672;10.064;2024-03-25T11:23:07;7.83;;;2.00;;
3274;SDS011;1649;53.672;10.064;2024-03-25T11:25:37;7.87;;;1.63;;
3274;SDS011;1649;53.672;10.064;2024-03-25T11:28:04;6.63;;;1.80;;
3274;SDS011;1649;53.672;10.064;2024-03-25T11:30:30;6.77;;;1.97;;
3274;SDS011;1649;53.672;10.064;2024-03-25T11:32:56;8.93;;;1.60;;
3274;SDS011;1649;53.672;10.064;2024-03-25T11:35:24;7.00;;;1.67;;
3274;SDS011;1649;53.672;10.064;2024-03-25T11:37:49;7.13;;;1.70;;
3274;SDS011;1649;53.672;10.064;2024-03-25T11:40:16;6.37;;;1.43;;
3274;SDS011;1649;53.672;10.064;2024-03-25T11:42:42;6.30;;;1.40;;
3274;SDS011;1649;53.672;10.064;2024-03-25T11:45:13;6.33;;;1.80;;
3274;SDS011;1649;53.672;10.064;2024-03-25T11:47:44;5.73;;;1.33;;
3274;SDS011;1649;53.672;10.064;2024-03-25T11:50:11;5.77;;;1.63;;
3274;SDS011;1649;53.672;10.064;2024-03-25T11:52:38;7.43;;;1.73;;
3274;SDS011;1649;53.672;10.064;2024-03-25T11:55:04;4.60;;;1.30;;
3274;SDS011;1649;53.672;10.064;2024-03-25T11:57:30;5.93;;;1.40;;
3274;SDS011;1649;53.672;10.064;2024-03-25T11:59:57;5.57;;;1.43;;
3274;SDS011;1649;53.672;10.064;2024-03-25T12:02:23;4.30;;;1.40;;
3274;SDS011;1649;53.672;10.064;2024-03-25T12:04:49;8.10;;;1.37;;
3274;SDS011;1649;53.672;10.064;2024-03-25T12:07:15;5.90;;;1.60;;
3274;SDS011;1649;53.672;10.064;2024-03-25T12:09:41;7.20;;;1.50;;
3274;SDS011;1649;53.672;10.064;2024-03-25T12:12:25;8.47;;;1.80;;
3274;SDS011;1649;53.672;10.064;2024-03-25T12:14:51;5.77;;;1.30;;
3274;SDS011;1649;53.672;10.064;2024-03-25T12:17:18;4.23;;;1.40;;
3274;SDS011;1649;53.672;10.064;2024-03-25T12:19:45;4.20;;;1.40;;
3274;SDS011;1649;53.672;10.064;2024-03-25T12:22:42;6.17;;;1.73;;
3274;SDS011;1649;53.672;10.064;2024-03-25T12:25:08;4.83;;;1.47;;
3274;SDS011;1649;53.672;10.064;2024-03-25T12:27:35;6.77;;;1.60;;
3274;SDS011;1649;53.672;10.064;2024-03-25T12:30:03;4.03;;;1.40;;
3274;SDS011;1649;53.672;10.064;2024-03-25T12:32:41;6.63;;;1.60;;
3274;SDS011;1649;53.672;10.064;2024-03-25T12:35:08;5.90;;;1.70;;
3274;SDS011;1649;53.672;10.064;2024-03-25T12:37:42;6.10;;;1.60;;
3274;SDS011;1649;53.672;10.064;2024-03-25T12:40:09;8.80;;;1.90;;
3274;SDS011;1649;53.672;10.064;2024-03-25T12:42:36;6.67;;;1.57;;
3274;SDS011;1649;53.672;10.064;2024-03-25T12:45:04;6.97;;;2.03;;
3274;SDS011;1649;53.672;10.064;2024-03-25T12:47:29;9.93;;;1.80;;
3274;SDS011;1649;53.672;10.064;2024-03-25T12:49:58;6.90;;;1.60;;
3274;SDS011;1649;53.672;10.064;2024-03-25T12:52:24;7.70;;;1.87;;
3274;SDS011;1649;53.672;10.064;2024-03-25T12:54:50;5.47;;;1.60;;
3274;SDS011;1649;53.672;10.064;2024-03-25T12:57:15;7.10;;;1.73;;
3274;SDS011;1649;53.672;10.064;2024-03-25T12:59:41;6.33;;;1.43;;
3274;SDS011;1649;53.672;10.064;2024-03-25T13:02:08;5.70;;;1.60;;
3274;SDS011;1649;53.672;10.064;2024-03-25T13:04:36;5.40;;;1.50;;
3274;SDS011;1649;53.672;10.064;2024-03-25T13:07:02;6.10;;;1.90;;
3274;SDS011;1649;53.672;10.064;2024-03-25T13:09:28;9.17;;;2.03;;
3274;SDS011;1649;53.672;10.064;2024-03-25T13:11:55;5.77;;;1.90;;
3274;SDS011;1649;53.672;10.064;2024-03-25T13:14:24;5.93;;;1.50;;
3274;SDS011;1649;53.672;10.064;2024-03-25T13:16:50;6.67;;;1.60;;
3274;SDS011;1649;53.672;10.064;2024-03-25T13:19:15;6.67;;;1.20;;
3274;SDS011;1649;53.672;10.064;2024-03-25T13:21:41;7.63;;;1.57;;
3274;SDS011;1649;53.672;10.064;2024-03-25T13:24:07;6.53;;;1.63;;
3274;SDS011;1649;53.672;10.064;2024-03-25T13:26:32;5.83;;;1.40;;
3274;SDS011;1649;53.672;10.064;2024-03-25T13:28:58;7.30;;;1.40;;
3274;SDS011;1649;53.672;10.064;2024-03-25T13:31:24;5.60;;;1.40;;
3274;SDS011;1649;53.672;10.064;2024-03-25T13:33:50;6.67;;;1.37;;
3274;SDS011;1649;53.672;10.064;2024-03-25T13:36:16;6.63;;;1.53;;
3274;SDS011;1649;53.672;10.064;2024-03-25T13:38:43;5.20;;;1.70;;
3274;SDS011;1649;53.672;10.064;2024-03-25T13:41:08;9.10;;;1.70;;
3274;SDS011;1649;53.672;10.064;2024-03-25T13:43:34;10.30;;;2.30;;
3274;SDS011;1649;53.672;10.064;2024-03-25T13:46:00;7.63;;;1.73;;
3274;SDS011;1649;53.672;10.064;2024-03-25T13:48:25;7.70;;;1.60;;
3274;SDS011;1649;53.672;10.064;2024-03-25T13:50:54;4.60;;;1.60;;
3274;SDS011;1649;53.672;10.064;2024-03-25T13:53:19;7.37;;;1.80;;
3274;SDS011;1649;53.672;10.064;2024-03-25T13:55:46;6.13;;;1.40;;
3274;SDS011;1649;53.672;10.064;2024-03-25T13:58:11;5.43;;;1.43;;
3274;SDS011;1649;53.672;10.064;2024-03-25T14:00:37;8.97;;;1.83;;
3274;SDS011;1649;53.672;10.064;2024-03-25T14:03:03;8.70;;;1.40;;
3274;SDS011;1649;53.672;10.064;2024-03-25T14:05:29;5.27;;;1.93;;
3274;SDS011;1649;53.672;10.064;2024-03-25T14:07:54;5.43;;;1.40;;
3274;SDS011;1649;53.672;10.064;2024-03-25T14:10:21;5.03;;;1.40;;
3274;SDS011;1649;53.672;10.064;2024-03-25T14:12:47;8.73;;;2.07;;
3274;SDS011;1649;53.672;10.064;2024-03-25T14:15:12;6.13;;;1.53;;
3274;SDS011;1649;53.672;10.064;2024-03-25T14:17:38;5.53;;;1.60;;
3274;SDS011;1649;53.672;10.064;2024-03-25T14:20:03;5.30;;;1.53;;
3274;SDS011;1649;53.672;10.064;2024-03-25T14:22:31;8.20;;;1.90;;
3274;SDS011;1649;53.672;10.064;2024-03-25T14:24:57;6.43;;;1.60;;
3274;SDS011;1649;53.672;10.064;2024-03-25T14:27:23;9.73;;;1.53;;
3274;SDS011;1649;53.672;10.064;2024-03-25T14:29:49;6.63;;;1.30;;
3274;SDS011;1649;53.672;10.064;2024-03-25T14:32:15;6.07;;;1.87;;
3274;SDS011;1649;53.672;10.064;2024-03-25T14:34:44;6.53;;;2.00;;
3274;SDS011;1649;53.672;10.064;2024-03-25T14:37:10;9.20;;;1.70;;
3274;SDS011;1649;53.672;10.064;2024-03-25T14:39:35;5.70;;;1.60;;
3274;SDS011;1649;53.672;10.064;2024-03-25T14:42:01;4.70;;;1.60;;
3274;SDS011;1649;53.672;10.064;2024-03-25T14:44:28;10.37;;;1.90;;
3274;SDS011;1649;53.672;10.064;2024-03-25T14:46:54;6.77;;;1.70;;
3274;SDS011;1649;53.672;10.064;2024-03-25T14:49:20;6.07;;;1.70;;
3274;SDS011;1649;53.672;10.064;2024-03-25T14:51:45;6.60;;;2.13;;
3274;SDS011;1649;53.672;10.064;2024-03-25T14:54:11;6.20;;;1.87;;